Time;durP1;ratioP1;P1;durP2;ratioP2;P2;SDS_P1;SDS_P2;PMS_P1;PMS_P2;Temp;Humidity;BMP_temperature;BMP_pressure;BME280_temperature;BME280_humidity;BME280_pressure;Samples;Min_cycle;Max_cycle;Signal;HPM_P1;HPM_P2
2022/06/10 00:06:41;;;;;;;1.70;0.50;;;18.20;99.90;;;;;;21135578;28;20209;-74
2022/06/10 00:16:43;;;;;;;0.77;0.30;;;;;;;;;;21127086;28;20278;-75
2022/06/10 00:26:46;;;;;;;0.77;0.47;;;;;;;;;;21162529;28;20209;-74
2022/06/10 00:36:48;;;;;;;0.87;0.63;;;;;;;;;;21144076;28;20220;-74
2022/06/10 00:46:49;;;;;;;0.40;0.30;;;;;;;;;;21143681;28;20250;-74
2022/06/10 00:57:06;;;;;;;1.50;0.50;;;;;;;;;;21141773;28;20246;-74
2022/06/10 01:07:09;;;;;;;1.00;0.50;;;;;;;;;;21158145;28;20272;-74
2022/06/10 01:17:10;;;;;;;1.43;0.47;;;;;;;;;;21152477;22;20277;-69
2022/06/10 01:37:53;;;;;;;1.67;0.77;;;;;;;;;;20955242;28;20221;-71
2022/06/10 01:47:59;;;;;;;1.70;0.80;;;17.30;99.90;;;;;;20955114;28;20282;-69
2022/06/10 01:58:07;;;;;;;0.87;0.50;;;;;;;;;;20970180;28;20283;-69
2022/06/10 02:08:15;;;;;;;0.70;0.50;;;;;;;;;;20953592;28;20591;-70
2022/06/10 02:18:21;;;;;;;1.10;0.57;;;;;;;;;;20953818;28;20625;-69
2022/06/10 02:28:26;;;;;;;0.90;0.50;;;;;;;;;;20976202;28;20253;-70
2022/06/10 02:38:54;;;;;;;2.67;0.50;;;16.70;99.90;;;;;;21069472;28;20212;-70
2022/06/10 02:49:02;;;;;;;1.83;0.57;;;;;;;;;;21127415;28;20220;-69
2022/06/10 03:09:32;;;;;;;1.10;0.60;;;;;;;;;;21135024;28;20644;-72
2022/06/10 03:19:41;;;;;;;1.70;0.60;;;;;;;;;;21117465;28;20245;-72
2022/06/10 03:29:47;;;;;;;1.23;0.80;;;;;;;;;;21115467;28;20208;-69
2022/06/10 03:39:51;;;;;;;1.40;0.50;;;16.10;99.90;;;;;;21132801;28;20211;-70
2022/06/10 03:50:04;;;;;;;0.97;0.70;;;16.00;99.90;;;;;;21113737;28;20281;-71
2022/06/10 04:00:07;;;;;;;2.43;0.70;;;15.60;99.90;;;;;;21114976;28;20196;-71
2022/06/10 04:10:19;;;;;;;0.80;0.60;;;;;;;;;;21130760;28;20227;-70
2022/06/10 04:20:31;;;;;;;1.63;0.60;;;15.90;99.90;;;;;;21129993;28;20215;-71
2022/06/10 04:30:35;;;;;;;0.73;0.60;;;;;;;;;;21095948;28;20219;-71
2022/06/10 04:40:38;;;;;;;1.20;0.70;;;;;;;;;;21086828;28;20333;-71
2022/06/10 04:50:41;;;;;;;0.67;0.50;;;;;;;;;;21113126;28;20228;-71
2022/06/10 05:00:47;;;;;;;1.27;0.70;;;16.10;99.90;;;;;;21079603;28;20253;-71
2022/06/10 05:10:50;;;;;;;0.90;0.60;;;;;;;;;;21072855;28;20216;-70
2022/06/10 05:20:58;;;;;;;8.93;0.93;;;;;;;;;;21123183;28;20293;-71
2022/06/10 05:31:01;;;;;;;2.77;0.70;;;;;;;;;;21088443;28;20232;-70
2022/06/10 05:42:04;;;;;;;2.20;0.77;;;;;;;;;;21038630;28;20274;-71
2022/06/10 05:51:25;;;;;;;2.10;0.83;;;;;;;;;;20951200;28;20220;-70
2022/06/10 06:01:27;;;;;;;1.80;1.10;;;;;;;;;;20954631;28;20217;-71
2022/06/10 06:11:29;;;;;;;1.93;0.97;;;;;;;;;;20967676;28;20252;-70
2022/06/10 06:21:31;;;;;;;0.90;0.80;;;;;;;;;;21080636;28;20223;-71
2022/06/10 06:31:33;;;;;;;0.87;0.80;;;17.90;99.90;;;;;;21072481;28;20630;-71
2022/06/10 06:41:35;;;;;;;1.40;0.70;;;17.90;99.90;;;;;;21064909;28;20208;-69
2022/06/10 06:51:39;;;;;;;1.07;0.73;;;;;;;;;;21014765;28;20208;-69
2022/06/10 07:01:41;;;;;;;0.87;0.40;;;;;;;;;;21019994;28;20212;-69
2022/06/10 07:11:43;;;;;;;2.27;0.70;;;;;;;;;;21002747;28;20216;-71
2022/06/10 07:21:45;;;;;;;1.07;0.70;;;;;;;;;;21048161;22;20224;-74
2022/06/10 07:31:47;;;;;;;1.03;0.60;;;;;;;;;;21023526;28;20221;-74
2022/06/10 07:42:00;;;;;;;1.53;0.60;;;;;;;;;;20979940;28;20599;-74
2022/06/10 07:52:03;;;;;;;1.20;0.57;;;;;;;;;;20977034;28;20221;-74
2022/06/10 08:02:05;;;;;;;3.40;0.80;;;;;;;;;;20955222;28;20211;-74
2022/06/10 08:12:07;;;;;;;0.67;0.50;;;;;;;;;;20993442;28;20231;-74
2022/06/10 08:32:30;;;;;;;2.00;0.87;;;;;;;;;;20966554;28;20224;-75
2022/06/10 08:42:41;;;;;;;1.50;0.67;;;;;;;;;;20987638;28;20221;-74
2022/06/10 08:52:43;;;;;;;1.23;0.70;;;;;;;;;;20991941;28;20302;-75
2022/06/10 09:02:56;;;;;;;1.23;0.60;;;;;;;;;;20995975;28;20219;-75
2022/06/10 09:13:16;;;;;;;1.20;0.57;;;21.20;99.90;;;;;;20988042;28;20212;-74
2022/06/10 09:23:20;;;;;;;1.13;0.53;;;;;;;;;;20971131;28;20249;-74
2022/06/10 09:33:43;;;;;;;1.07;0.40;;;21.80;99.90;;;;;;20931947;28;20222;-75
2022/06/10 09:44:03;;;;;;;1.90;0.50;;;22.20;99.90;;;;;;20904064;28;20212;-75
2022/06/10 09:54:20;;;;;;;2.03;0.70;;;;;;;;;;20935664;28;20217;-76
2022/06/10 10:04:21;;;;;;;1.70;0.57;;;;;;;;;;20986203;28;20207;-76
2022/06/10 10:14:58;;;;;;;1.23;0.60;;;23.00;99.90;;;;;;20984701;28;20227;-75
2022/06/10 10:25:00;;;;;;;1.90;0.63;;;;;;;;;;21008834;28;20219;-77
2022/06/10 10:35:09;;;;;;;1.10;0.40;;;;;;;;;;20987372;28;20225;-76
2022/06/10 10:45:23;;;;;;;0.95;0.30;;;;;;;;;;20991106;28;20270;-76
2022/06/10 10:55:31;;;;;;;1.40;0.60;;;;;;;;;;20990094;28;20250;-76
2022/06/10 11:05:47;;;;;;;1.30;0.47;;;;;;;;;;21001138;28;20177;-76
2022/06/10 11:15:49;;;;;;;0.95;0.40;;;;;;;;;;20998761;28;20214;-76
2022/06/10 11:26:02;;;;;;;0.80;0.50;;;;;;;;;;20999320;28;20213;-73
2022/06/10 11:36:10;;;;;;;1.27;0.40;;;;;;;;;;20976155;28;20228;-74
2022/06/10 11:46:21;;;;;;;1.17;0.43;;;;;;;;;;20951980;28;20266;-74
2022/06/10 12:06:54;;;;;;;0.73;0.30;;;25.20;98.60;;;;;;21001225;28;20273;-74
2022/06/10 12:16:59;;;;;;;0.77;0.50;;;;;;;;;;20994640;28;20220;-77
2022/06/10 12:27:06;;;;;;;1.17;0.70;;;25.20;99.50;;;;;;20978325;28;20211;-76
2022/06/10 12:37:34;;;;;;;2.10;0.43;;;25.50;96.60;;;;;;21036139;28;20294;-76
2022/06/10 12:47:41;;;;;;;1.35;0.50;;;25.80;94.60;;;;;;20984046;28;20706;-75
2022/06/10 12:57:46;;;;;;;0.38;0.20;;;25.90;92.50;;;;;;20963835;28;20223;-75
2022/06/10 13:07:49;;;;;;;2.13;0.60;;;;;;;;;;21002437;28;20278;-73
2022/06/10 13:17:52;;;;;;;2.72;0.50;;;;;;;;;;20969382;28;20228;-74
2022/06/10 13:27:54;;;;;;;0.20;0.20;;;25.30;85.50;;;;;;21006690;28;20274;-76
2022/06/10 13:37:59;;;;;;;0.57;0.20;;;;;;;;;;21109074;22;20241;-73
2022/06/10 13:48:02;;;;;;;1.23;0.30;;;;;;;;;;21007180;28;20222;-73
2022/06/10 13:58:11;;;;;;;0.52;0.25;;;;;;;;;;21035843;28;20226;-72
2022/06/10 14:08:16;;;;;;;0.52;0.30;;;;;;;;;;20948519;28;20214;-73
2022/06/10 14:18:21;;;;;;;0.60;0.40;;;26.80;80.30;;;;;;20929719;28;20227;-71
2022/06/10 14:28:23;;;;;;;0.75;0.30;;;;;;;;;;20907830;28;20626;-73
2022/06/10 14:38:25;;;;;;;0.88;0.60;;;;;;;;;;20945543;28;20270;-71
2022/06/10 14:48:29;;;;;;;0.50;0.20;;;;;;;;;;20945224;28;20219;-74
2022/06/10 14:58:32;;;;;;;1.90;0.50;;;;;;;;;;20987017;28;20264;-71
2022/06/10 15:08:34;;;;;;;0.70;0.28;;;;;;;;;;20916021;28;20277;-73
2022/06/10 15:18:37;;;;;;;0.80;0.40;;;;;;;;;;21020007;28;20270;-73
2022/06/10 15:28:39;;;;;;;0.63;0.30;;;;;;;;;;20950642;28;20223;-75
2022/06/10 15:49:03;;;;;;;0.85;0.30;;;;;;;;;;20969422;28;20357;-74
2022/06/10 15:59:06;;;;;;;3.15;0.50;;;;;;;;;;20941721;28;20207;-75
2022/06/10 16:09:09;;;;;;;0.30;0.20;;;;;;;;;;20957310;28;20604;-74
2022/06/10 16:19:11;;;;;;;0.73;0.30;;;;;;;;;;20925205;28;20219;-74
2022/06/10 16:29:25;;;;;;;1.33;0.68;;;26.90;83.10;;;;;;20953007;28;20659;-76
2022/06/10 16:39:27;;;;;;;0.45;0.30;;;;;;;;;;20934828;28;20227;-75
2022/06/10 16:49:31;;;;;;;0.88;0.30;;;;;;;;;;21017303;28;20570;-75
2022/06/10 16:59:35;;;;;;;2.95;0.32;;;;;;;;;;21025297;28;20231;-74
2022/06/10 17:09:38;;;;;;;1.58;0.40;;;;;;;;;;21031805;28;20221;-76
2022/06/10 17:19:44;;;;;;;0.68;0.30;;;;;;;;;;21012521;28;20211;-76
2022/06/10 17:29:47;;;;;;;1.45;0.40;;;25.70;89.40;;;;;;20931566;28;20276;-74
2022/06/10 17:39:49;;;;;;;1.40;0.40;;;;;;;;;;20932901;28;21025;-75
2022/06/10 17:49:53;;;;;;;0.47;0.30;;;25.40;93.70;;;;;;20935059;28;20621;-74
2022/06/10 17:59:56;;;;;;;5.00;0.70;;;;;;;;;;20977206;28;20220;-75
2022/06/10 18:09:58;;;;;;;5.07;0.60;;;;;;;;;;20865974;28;20602;-75
2022/06/10 18:20:00;;;;;;;1.80;0.40;;;;;;;;;;20865762;28;20715;-75
2022/06/10 18:30:14;;;;;;;0.93;0.32;;;25.00;97.60;;;;;;20865563;28;20244;-75
2022/06/10 18:40:16;;;;;;;1.17;0.50;;;;;;;;;;20963798;28;20267;-75
2022/06/10 18:50:18;;;;;;;0.88;0.45;;;;;;;;;;21012973;28;20268;-75
2022/06/10 19:00:20;;;;;;;0.82;0.43;;;;;;;;;;20929391;28;20216;-75
2022/06/10 19:10:26;;;;;;;0.70;0.22;;;24.80;99.90;;;;;;20999992;28;20220;-74
2022/06/10 19:20:30;;;;;;;0.30;0.30;;;;;;;;;;20974661;28;20639;-75
2022/06/10 19:30:32;;;;;;;2.25;0.77;;;24.50;99.90;;;;;;20931426;28;20234;-75
2022/06/10 19:40:38;;;;;;;1.75;0.70;;;24.10;99.90;;;;;;20984483;28;20216;-74
2022/06/10 19:50:43;;;;;;;3.50;0.50;;;;;;;;;;20922111;28;20224;-75
2022/06/10 20:00:45;;;;;;;1.67;0.52;;;;;;;;;;20940425;28;20229;-74
2022/06/10 20:10:48;;;;;;;0.82;0.50;;;23.70;99.90;;;;;;20940912;28;20222;-74
2022/06/10 20:20:51;;;;;;;1.27;0.68;;;;;;;;;;20955365;28;20208;-74
2022/06/10 20:30:57;;;;;;;1.40;0.60;;;23.60;99.90;;;;;;20935874;28;20258;-75
2022/06/10 20:41:00;;;;;;;1.20;0.50;;;;;;;;;;20937191;28;20256;-75
2022/06/10 20:51:14;;;;;;;0.80;0.52;;;23.30;99.90;;;;;;20951294;28;20721;-75
2022/06/10 21:01:36;;;;;;;1.10;0.70;;;23.10;99.90;;;;;;20935329;28;20288;-75
2022/06/10 21:11:38;;;;;;;1.40;0.68;;;;;;;;;;20930695;28;20219;-74
2022/06/10 21:21:46;;;;;;;2.67;0.50;;;22.60;99.90;;;;;;21005886;28;20232;-74
2022/06/10 21:31:53;;;;;;;1.45;0.68;;;22.70;99.90;;;;;;21002680;28;20252;-75
2022/06/10 21:52:24;;;;;;;1.23;0.68;;;;;;;;;;21023078;28;20222;-74
2022/06/10 22:02:28;;;;;;;1.23;0.70;;;;;;;;;;21023371;28;20210;-74
2022/06/10 22:12:32;;;;;;;0.93;0.52;;;;;;;;;;21038353;28;20232;-74
2022/06/10 22:22:35;;;;;;;1.48;0.70;;;;;;;;;;21012843;28;20314;-74
2022/06/10 22:32:38;;;;;;;1.23;0.60;;;22.10;99.90;;;;;;21038095;28;20248;-74
2022/06/10 22:42:40;;;;;;;1.08;0.50;;;;;;;;;;21037720;28;20209;-74
2022/06/10 22:52:45;;;;;;;0.90;0.70;;;;;;;;;;21019695;28;20760;-74
2022/06/10 23:02:51;;;;;;;0.55;0.50;;;21.70;99.90;;;;;;21036624;28;20752;-74
2022/06/10 23:12:53;;;;;;;2.33;0.90;;;;;;;;;;21052835;28;20271;-74
2022/06/10 23:22:56;;;;;;;2.65;0.60;;;21.30;99.90;;;;;;21021145;28;20217;-74
2022/06/10 23:32:59;;;;;;;1.48;0.70;;;;;;;;;;21050733;28;20288;-74
2022/06/10 23:43:03;;;;;;;0.90;0.50;;;20.80;99.90;;;;;;21033721;28;20203;-74
2022/06/10 23:53:05;;;;;;;0.80;0.57;;;;;;;;;;21014716;28;20224;-74
